sensor_id;sensor_type;location;lat;lon;timestamp;P1;durP1;ratioP1;P2;durP2;ratioP2
19877;SDS011;10101;52.204;9.910;2023-02-19T00:00:10;5.17;;;2.87;;
19877;SDS011;10101;52.204;9.910;2023-02-19T00:02:40;6.10;;;2.80;;
19877;SDS011;10101;52.204;9.910;2023-02-19T00:05:08;5.73;;;2.83;;
19877;SDS011;10101;52.204;9.910;2023-02-19T00:07:35;3.37;;;2.53;;
19877;SDS011;10101;52.204;9.910;2023-02-19T00:10:02;4.23;;;3.23;;
19877;SDS011;10101;52.204;9.910;2023-02-19T00:12:28;7.73;;;3.30;;
19877;SDS011;10101;52.204;9.910;2023-02-19T00:14:55;8.60;;;3.67;;
19877;SDS011;10101;52.204;9.910;2023-02-19T00:17:22;4.43;;;3.07;;
19877;SDS011;10101;52.204;9.910;2023-02-19T00:19:49;7.17;;;3.50;;
19877;SDS011;10101;52.204;9.910;2023-02-19T00:22:17;6.00;;;3.33;;
19877;SDS011;10101;52.204;9.910;2023-02-19T00:24:44;6.43;;;3.50;;
19877;SDS011;10101;52.204;9.910;2023-02-19T00:27:10;5.40;;;3.20;;
19877;SDS011;10101;52.204;9.910;2023-02-19T00:29:37;5.37;;;3.40;;
19877;SDS011;10101;52.204;9.910;2023-02-19T00:32:04;5.07;;;3.23;;
19877;SDS011;10101;52.204;9.910;2023-02-19T00:34:30;6.60;;;2.97;;
19877;SDS011;10101;52.204;9.910;2023-02-19T00:36:57;6.53;;;3.50;;
19877;SDS011;10101;52.204;9.910;2023-02-19T00:39:25;4.40;;;3.10;;
19877;SDS011;10101;52.204;9.910;2023-02-19T00:41:52;4.30;;;3.30;;
19877;SDS011;10101;52.204;9.910;2023-02-19T00:44:19;6.97;;;3.10;;
19877;SDS011;10101;52.204;9.910;2023-02-19T00:46:46;6.43;;;3.37;;
19877;SDS011;10101;52.204;9.910;2023-02-19T00:49:14;7.50;;;3.80;;
19877;SDS011;10101;52.204;9.910;2023-02-19T00:51:43;7.30;;;4.57;;
19877;SDS011;10101;52.204;9.910;2023-02-19T00:54:09;8.93;;;4.83;;
19877;SDS011;10101;52.204;9.910;2023-02-19T00:56:38;10.23;;;4.93;;
19877;SDS011;10101;52.204;9.910;2023-02-19T00:59:05;7.97;;;5.27;;
19877;SDS011;10101;52.204;9.910;2023-02-19T01:01:31;8.93;;;5.47;;
19877;SDS011;10101;52.204;9.910;2023-02-19T01:03:58;7.60;;;5.23;;
19877;SDS011;10101;52.204;9.910;2023-02-19T01:06:25;11.13;;;5.90;;
19877;SDS011;10101;52.204;9.910;2023-02-19T01:08:54;8.70;;;5.60;;
19877;SDS011;10101;52.204;9.910;2023-02-19T01:11:20;12.30;;;6.00;;
19877;SDS011;10101;52.204;9.910;2023-02-19T01:13:48;10.13;;;5.70;;
19877;SDS011;10101;52.204;9.910;2023-02-19T01:16:16;11.50;;;5.13;;
19877;SDS011;10101;52.204;9.910;2023-02-19T01:18:44;9.07;;;5.60;;
19877;SDS011;10101;52.204;9.910;2023-02-19T01:21:13;8.90;;;5.00;;
19877;SDS011;10101;52.204;9.910;2023-02-19T01:23:41;8.37;;;5.27;;
19877;SDS011;10101;52.204;9.910;2023-02-19T01:26:09;8.20;;;4.73;;
19877;SDS011;10101;52.204;9.910;2023-02-19T01:28:37;11.37;;;5.70;;
19877;SDS011;10101;52.204;9.910;2023-02-19T01:31:06;9.23;;;4.73;;
19877;SDS011;10101;52.204;9.910;2023-02-19T01:33:35;10.40;;;4.43;;
19877;SDS011;10101;52.204;9.910;2023-02-19T01:36:02;8.47;;;4.73;;
19877;SDS011;10101;52.204;9.910;2023-02-19T01:38:30;8.33;;;4.63;;
19877;SDS011;10101;52.204;9.910;2023-02-19T01:40:58;9.87;;;4.80;;
19877;SDS011;10101;52.204;9.910;2023-02-19T01:43:26;10.00;;;4.70;;
19877;SDS011;10101;52.204;9.910;2023-02-19T01:45:54;9.30;;;4.30;;
19877;SDS011;10101;52.204;9.910;2023-02-19T01:48:25;9.47;;;4.70;;
19877;SDS011;10101;52.204;9.910;2023-02-19T01:50:56;10.43;;;4.57;;
19877;SDS011;10101;52.204;9.910;2023-02-19T01:53:28;8.17;;;4.63;;
19877;SDS011;10101;52.204;9.910;2023-02-19T01:55:58;7.63;;;5.10;;
19877;SDS011;10101;52.204;9.910;2023-02-19T01:58:27;9.67;;;5.50;;
19877;SDS011;10101;52.204;9.910;2023-02-19T02:00:57;8.70;;;5.87;;
19877;SDS011;10101;52.204;9.910;2023-02-19T02:03:26;9.70;;;5.60;;
19877;SDS011;10101;52.204;9.910;2023-02-19T02:05:54;7.67;;;4.60;;
19877;SDS011;10101;52.204;9.910;2023-02-19T02:08:26;8.40;;;5.10;;
19877;SDS011;10101;52.204;9.910;2023-02-19T02:11:11;9.87;;;5.43;;
19877;SDS011;10101;52.204;9.910;2023-02-19T02:13:38;6.70;;;4.80;;
19877;SDS011;10101;52.204;9.910;2023-02-19T02:16:09;6.70;;;3.43;;
19877;SDS011;10101;52.204;9.910;2023-02-19T02:18:50;5.40;;;3.50;;
19877;SDS011;10101;52.204;9.910;2023-02-19T02:24:36;3.80;;;2.00;;
19877;SDS011;10101;52.204;9.910;2023-02-19T02:27:30;3.80;;;2.00;;
19877;SDS011;10101;52.204;9.910;2023-02-19T02:30:10;1.97;;;1.53;;
19877;SDS011;10101;52.204;9.910;2023-02-19T02:32:44;2.80;;;1.50;;
19877;SDS011;10101;52.204;9.910;2023-02-19T02:35:17;2.33;;;1.70;;
19877;SDS011;10101;52.204;9.910;2023-02-19T02:37:47;2.20;;;1.50;;
19877;SDS011;10101;52.204;9.910;2023-02-19T02:40:16;4.43;;;2.40;;
19877;SDS011;10101;52.204;9.910;2023-02-19T02:42:44;3.70;;;2.13;;
19877;SDS011;10101;52.204;9.910;2023-02-19T02:45:21;4.80;;;2.43;;
19877;SDS011;10101;52.204;9.910;2023-02-19T02:48:06;5.40;;;3.17;;
19877;SDS011;10101;52.204;9.910;2023-02-19T02:50:39;4.43;;;3.23;;
19877;SDS011;10101;52.204;9.910;2023-02-19T02:53:11;5.47;;;3.10;;
19877;SDS011;10101;52.204;9.910;2023-02-19T02:55:58;4.43;;;3.10;;
19877;SDS011;10101;52.204;9.910;2023-02-19T02:58:25;5.30;;;3.40;;
19877;SDS011;10101;52.204;9.910;2023-02-19T03:00:56;6.07;;;2.90;;
19877;SDS011;10101;52.204;9.910;2023-02-19T03:03:44;4.40;;;2.83;;
19877;SDS011;10101;52.204;9.910;2023-02-19T03:06:16;4.53;;;3.30;;
19877;SDS011;10101;52.204;9.910;2023-02-19T03:08:47;4.47;;;2.90;;
19877;SDS011;10101;52.204;9.910;2023-02-19T03:11:19;6.00;;;3.43;;
19877;SDS011;10101;52.204;9.910;2023-02-19T03:14:05;5.87;;;3.00;;
19877;SDS011;10101;52.204;9.910;2023-02-19T03:16:55;3.60;;;2.67;;
19877;SDS011;10101;52.204;9.910;2023-02-19T03:19:43;4.40;;;2.97;;
19877;SDS011;10101;52.204;9.910;2023-02-19T03:22:16;4.00;;;2.83;;
19877;SDS011;10101;52.204;9.910;2023-02-19T03:24:47;4.27;;;2.53;;
19877;SDS011;10101;52.204;9.910;2023-02-19T03:27:35;5.10;;;2.97;;
19877;SDS011;10101;52.204;9.910;2023-02-19T03:30:06;3.53;;;2.60;;
19877;SDS011;10101;52.204;9.910;2023-02-19T03:32:38;3.73;;;2.70;;
19877;SDS011;10101;52.204;9.910;2023-02-19T03:35:08;4.70;;;2.67;;
19877;SDS011;10101;52.204;9.910;2023-02-19T03:37:40;4.37;;;2.80;;
19877;SDS011;10101;52.204;9.910;2023-02-19T03:40:10;3.50;;;2.37;;
19877;SDS011;10101;52.204;9.910;2023-02-19T03:42:39;3.80;;;2.40;;
19877;SDS011;10101;52.204;9.910;2023-02-19T03:45:18;6.20;;;2.47;;
19877;SDS011;10101;52.204;9.910;2023-02-19T03:47:57;4.47;;;2.13;;
19877;SDS011;10101;52.204;9.910;2023-02-19T03:50:38;2.73;;;2.03;;
19877;SDS011;10101;52.204;9.910;2023-02-19T03:53:11;4.20;;;2.43;;
19877;SDS011;10101;52.204;9.910;2023-02-19T03:55:43;3.30;;;2.17;;
19877;SDS011;10101;52.204;9.910;2023-02-19T03:58:20;4.07;;;2.43;;
19877;SDS011;10101;52.204;9.910;2023-02-19T04:00:54;4.80;;;2.37;;
19877;SDS011;10101;52.204;9.910;2023-02-19T04:03:26;2.07;;;1.47;;
19877;SDS011;10101;52.204;9.910;2023-02-19T04:06:00;1.00;;;0.90;;
19877;SDS011;10101;52.204;9.910;2023-02-19T04:08:29;0.67;;;0.67;;
19877;SDS011;10101;52.204;9.910;2023-02-19T04:10:58;0.60;;;0.60;;
19877;SDS011;10101;52.204;9.910;2023-02-19T04:13:26;0.73;;;0.63;;
19877;SDS011;10101;52.204;9.910;2023-02-19T04:15:59;0.67;;;0.67;;
19877;SDS011;10101;52.204;9.910;2023-02-19T04:18:30;0.43;;;0.43;;
19877;SDS011;10101;52.204;9.910;2023-02-19T04:21:00;0.63;;;0.37;;
19877;SDS011;10101;52.204;9.910;2023-02-19T04:23:29;0.50;;;0.50;;
19877;SDS011;10101;52.204;9.910;2023-02-19T04:26:00;0.70;;;0.60;;
19877;SDS011;10101;52.204;9.910;2023-02-19T04:28:28;0.60;;;0.60;;
19877;SDS011;10101;52.204;9.910;2023-02-19T04:30:56;0.40;;;0.40;;
19877;SDS011;10101;52.204;9.910;2023-02-19T04:33:23;0.67;;;0.50;;
19877;SDS011;10101;52.204;9.910;2023-02-19T04:35:51;0.50;;;0.50;;
19877;SDS011;10101;52.204;9.910;2023-02-19T04:38:17;0.60;;;0.60;;
19877;SDS011;10101;52.204;9.910;2023-02-19T04:40:44;0.87;;;0.50;;
19877;SDS011;10101;52.204;9.910;2023-02-19T04:43:11;0.60;;;0.60;;
19877;SDS011;10101;52.204;9.910;2023-02-19T04:45:38;0.40;;;0.40;;
19877;SDS011;10101;52.204;9.910;2023-02-19T04:48:05;0.43;;;0.43;;
19877;SDS011;10101;52.204;9.910;2023-02-19T04:50:32;0.50;;;0.50;;
19877;SDS011;10101;52.204;9.910;2023-02-19T04:53:00;0.90;;;0.60;;
19877;SDS011;10101;52.204;9.910;2023-02-19T04:55:26;0.60;;;0.60;;
19877;SDS011;10101;52.204;9.910;2023-02-19T04:57:53;0.87;;;0.50;;
19877;SDS011;10101;52.204;9.910;2023-02-19T05:00:20;0.50;;;0.50;;
19877;SDS011;10101;52.204;9.910;2023-02-19T05:02:47;0.60;;;0.50;;
19877;SDS011;10101;52.204;9.910;2023-02-19T05:05:13;0.40;;;0.40;;
19877;SDS011;10101;52.204;9.910;2023-02-19T05:07:40;0.83;;;0.60;;
19877;SDS011;10101;52.204;9.910;2023-02-19T05:10:08;0.60;;;0.53;;
19877;SDS011;10101;52.204;9.910;2023-02-19T05:12:35;1.43;;;0.63;;
19877;SDS011;10101;52.204;9.910;2023-02-19T05:15:02;0.60;;;0.60;;
19877;SDS011;10101;52.204;9.910;2023-02-19T05:17:31;0.70;;;0.70;;
19877;SDS011;10101;52.204;9.910;2023-02-19T05:19:58;0.60;;;0.60;;
19877;SDS011;10101;52.204;9.910;2023-02-19T05:22:25;4.63;;;2.30;;
19877;SDS011;10101;52.204;9.910;2023-02-19T05:24:53;2.37;;;1.50;;
19877;SDS011;10101;52.204;9.910;2023-02-19T05:27:21;1.20;;;0.90;;
19877;SDS011;10101;52.204;9.910;2023-02-19T05:29:48;1.20;;;0.70;;
19877;SDS011;10101;52.204;9.910;2023-02-19T05:32:14;0.90;;;0.70;;
19877;SDS011;10101;52.204;9.910;2023-02-19T05:34:41;1.70;;;0.90;;
19877;SDS011;10101;52.204;9.910;2023-02-19T05:37:08;1.60;;;0.93;;
19877;SDS011;10101;52.204;9.910;2023-02-19T05:39:34;2.50;;;1.40;;
19877;SDS011;10101;52.204;9.910;2023-02-19T05:42:01;1.20;;;0.77;;
19877;SDS011;10101;52.204;9.910;2023-02-19T05:44:30;0.90;;;0.70;;
19877;SDS011;10101;52.204;9.910;2023-02-19T05:46:56;2.37;;;1.30;;
19877;SDS011;10101;52.204;9.910;2023-02-19T05:49:23;1.90;;;0.47;;
19877;SDS011;10101;52.204;9.910;2023-02-19T05:51:50;0.73;;;0.73;;
19877;SDS011;10101;52.204;9.910;2023-02-19T05:54:17;0.63;;;0.60;;
19877;SDS011;10101;52.204;9.910;2023-02-19T05:56:44;0.83;;;0.70;;
19877;SDS011;10101;52.204;9.910;2023-02-19T05:59:13;0.53;;;0.53;;
19877;SDS011;10101;52.204;9.910;2023-02-19T06:01:43;1.13;;;0.80;;
19877;SDS011;10101;52.204;9.910;2023-02-19T06:04:10;1.17;;;0.80;;
19877;SDS011;10101;52.204;9.910;2023-02-19T06:06:37;0.93;;;0.77;;
19877;SDS011;10101;52.204;9.910;2023-02-19T06:09:05;0.57;;;0.57;;
19877;SDS011;10101;52.204;9.910;2023-02-19T06:11:32;2.40;;;1.57;;
19877;SDS011;10101;52.204;9.910;2023-02-19T06:13:59;1.50;;;1.13;;
19877;SDS011;10101;52.204;9.910;2023-02-19T06:16:26;1.27;;;0.93;;
19877;SDS011;10101;52.204;9.910;2023-02-19T06:18:54;1.77;;;0.90;;
19877;SDS011;10101;52.204;9.910;2023-02-19T06:21:21;0.70;;;0.67;;
19877;SDS011;10101;52.204;9.910;2023-02-19T06:23:48;0.83;;;0.80;;
19877;SDS011;10101;52.204;9.910;2023-02-19T06:26:16;1.17;;;0.73;;
19877;SDS011;10101;52.204;9.910;2023-02-19T06:28:45;1.00;;;0.90;;
19877;SDS011;10101;52.204;9.910;2023-02-19T06:31:13;1.60;;;0.80;;
19877;SDS011;10101;52.204;9.910;2023-02-19T06:33:40;1.27;;;0.97;;
19877;SDS011;10101;52.204;9.910;2023-02-19T06:36:10;0.83;;;0.73;;
19877;SDS011;10101;52.204;9.910;2023-02-19T06:38:38;1.87;;;1.00;;
19877;SDS011;10101;52.204;9.910;2023-02-19T06:41:05;3.10;;;1.50;;
19877;SDS011;10101;52.204;9.910;2023-02-19T06:43:33;1.40;;;1.10;;
19877;SDS011;10101;52.204;9.910;2023-02-19T06:46:01;0.80;;;0.80;;
19877;SDS011;10101;52.204;9.910;2023-02-19T06:48:29;1.07;;;0.73;;
19877;SDS011;10101;52.204;9.910;2023-02-19T06:50:56;1.70;;;0.63;;
19877;SDS011;10101;52.204;9.910;2023-02-19T06:53:25;1.80;;;0.63;;
19877;SDS011;10101;52.204;9.910;2023-02-19T06:55:55;1.20;;;0.53;;
19877;SDS011;10101;52.204;9.910;2023-02-19T06:58:22;1.23;;;0.70;;
19877;SDS011;10101;52.204;9.910;2023-02-19T07:00:49;1.37;;;0.60;;
19877;SDS011;10101;52.204;9.910;2023-02-19T07:03:16;1.03;;;0.50;;
19877;SDS011;10101;52.204;9.910;2023-02-19T07:05:43;0.80;;;0.40;;
19877;SDS011;10101;52.204;9.910;2023-02-19T07:08:09;0.30;;;0.30;;
19877;SDS011;10101;52.204;9.910;2023-02-19T07:10:38;0.60;;;0.47;;
19877;SDS011;10101;52.204;9.910;2023-02-19T07:13:04;0.63;;;0.57;;
19877;SDS011;10101;52.204;9.910;2023-02-19T07:15:31;0.83;;;0.60;;
19877;SDS011;10101;52.204;9.910;2023-02-19T07:17:58;1.00;;;0.60;;
19877;SDS011;10101;52.204;9.910;2023-02-19T07:20:24;1.23;;;0.50;;
19877;SDS011;10101;52.204;9.910;2023-02-19T07:22:51;0.73;;;0.73;;
19877;SDS011;10101;52.204;9.910;2023-02-19T07:25:18;0.63;;;0.60;;
19877;SDS011;10101;52.204;9.910;2023-02-19T07:27:47;0.73;;;0.70;;
19877;SDS011;10101;52.204;9.910;2023-02-19T07:30:13;1.30;;;0.60;;
19877;SDS011;10101;52.204;9.910;2023-02-19T07:32:40;0.63;;;0.63;;
19877;SDS011;10101;52.204;9.910;2023-02-19T07:35:09;0.60;;;0.50;;
19877;SDS011;10101;52.204;9.910;2023-02-19T07:37:36;0.83;;;0.70;;
19877;SDS011;10101;52.204;9.910;2023-02-19T07:40:03;0.97;;;0.70;;
19877;SDS011;10101;52.204;9.910;2023-02-19T07:42:31;0.70;;;0.67;;
19877;SDS011;10101;52.204;9.910;2023-02-19T07:44:59;0.80;;;0.80;;
19877;SDS011;10101;52.204;9.910;2023-02-19T07:47:26;0.73;;;0.73;;
19877;SDS011;10101;52.204;9.910;2023-02-19T07:49:53;0.50;;;0.50;;
19877;SDS011;10101;52.204;9.910;2023-02-19T07:52:20;0.50;;;0.50;;
19877;SDS011;10101;52.204;9.910;2023-02-19T07:54:47;2.17;;;1.40;;
19877;SDS011;10101;52.204;9.910;2023-02-19T07:57:14;4.27;;;2.47;;
19877;SDS011;10101;52.204;9.910;2023-02-19T07:59:40;3.13;;;2.13;;
19877;SDS011;10101;52.204;9.910;2023-02-19T08:02:11;1.90;;;1.20;;
19877;SDS011;10101;52.204;9.910;2023-02-19T08:04:59;0.80;;;0.80;;
19877;SDS011;10101;52.204;9.910;2023-02-19T08:07:29;2.47;;;0.80;;
19877;SDS011;10101;52.204;9.910;2023-02-19T08:09:57;1.17;;;0.90;;
19877;SDS011;10101;52.204;9.910;2023-02-19T08:12:37;1.33;;;1.00;;
19877;SDS011;10101;52.204;9.910;2023-02-19T08:15:22;1.37;;;1.27;;
19877;SDS011;10101;52.204;9.910;2023-02-19T08:17:50;1.47;;;1.20;;
19877;SDS011;10101;52.204;9.910;2023-02-19T08:20:16;1.40;;;1.30;;
19877;SDS011;10101;52.204;9.910;2023-02-19T08:22:43;1.63;;;1.10;;
19877;SDS011;10101;52.204;9.910;2023-02-19T08:25:10;1.30;;;1.10;;
19877;SDS011;10101;52.204;9.910;2023-02-19T08:27:36;1.20;;;1.10;;
19877;SDS011;10101;52.204;9.910;2023-02-19T08:30:03;1.23;;;1.03;;
19877;SDS011;10101;52.204;9.910;2023-02-19T08:32:32;1.53;;;1.20;;
19877;SDS011;10101;52.204;9.910;2023-02-19T08:35:01;1.10;;;0.90;;
19877;SDS011;10101;52.204;9.910;2023-02-19T08:37:28;1.73;;;1.00;;
19877;SDS011;10101;52.204;9.910;2023-02-19T08:39:54;2.27;;;1.50;;
19877;SDS011;10101;52.204;9.910;2023-02-19T08:42:21;1.57;;;1.10;;
19877;SDS011;10101;52.204;9.910;2023-02-19T08:44:48;0.83;;;0.83;;
19877;SDS011;10101;52.204;9.910;2023-02-19T08:47:15;1.27;;;0.90;;
19877;SDS011;10101;52.204;9.910;2023-02-19T08:49:42;0.80;;;0.80;;
19877;SDS011;10101;52.204;9.910;2023-02-19T08:52:10;2.87;;;1.20;;
19877;SDS011;10101;52.204;9.910;2023-02-19T08:54:36;3.53;;;1.20;;
19877;SDS011;10101;52.204;9.910;2023-02-19T08:57:03;2.33;;;1.23;;
19877;SDS011;10101;52.204;9.910;2023-02-19T08:59:30;1.57;;;1.17;;
19877;SDS011;10101;52.204;9.910;2023-02-19T09:01:57;2.90;;;1.50;;
19877;SDS011;10101;52.204;9.910;2023-02-19T09:04:24;2.20;;;1.17;;
19877;SDS011;10101;52.204;9.910;2023-02-19T09:06:51;2.53;;;1.30;;
19877;SDS011;10101;52.204;9.910;2023-02-19T09:09:19;3.50;;;1.37;;
19877;SDS011;10101;52.204;9.910;2023-02-19T09:11:46;2.90;;;2.00;;
19877;SDS011;10101;52.204;9.910;2023-02-19T09:14:12;2.43;;;2.07;;
19877;SDS011;10101;52.204;9.910;2023-02-19T09:16:39;2.40;;;1.67;;
19877;SDS011;10101;52.204;9.910;2023-02-19T09:19:06;2.40;;;1.70;;
19877;SDS011;10101;52.204;9.910;2023-02-19T09:21:33;2.13;;;1.50;;
19877;SDS011;10101;52.204;9.910;2023-02-19T09:24:00;2.33;;;1.40;;
19877;SDS011;10101;52.204;9.910;2023-02-19T09:26:28;2.67;;;1.30;;
19877;SDS011;10101;52.204;9.910;2023-02-19T09:28:55;3.13;;;1.40;;
19877;SDS011;10101;52.204;9.910;2023-02-19T09:31:21;2.63;;;1.50;;
19877;SDS011;10101;52.204;9.910;2023-02-19T09:33:48;4.57;;;1.63;;
19877;SDS011;10101;52.204;9.910;2023-02-19T09:36:15;3.10;;;1.70;;
19877;SDS011;10101;52.204;9.910;2023-02-19T09:38:43;2.60;;;1.10;;
19877;SDS011;10101;52.204;9.910;2023-02-19T09:41:13;2.27;;;1.33;;
19877;SDS011;10101;52.204;9.910;2023-02-19T09:43:45;2.20;;;1.33;;
19877;SDS011;10101;52.204;9.910;2023-02-19T09:46:20;2.10;;;1.30;;
19877;SDS011;10101;52.204;9.910;2023-02-19T09:48:53;4.03;;;1.70;;
19877;SDS011;10101;52.204;9.910;2023-02-19T09:51:24;1.73;;;1.57;;
19877;SDS011;10101;52.204;9.910;2023-02-19T09:53:53;1.80;;;1.20;;
19877;SDS011;10101;52.204;9.910;2023-02-19T09:56:22;1.00;;;0.83;;
19877;SDS011;10101;52.204;9.910;2023-02-19T09:58:52;2.70;;;1.20;;
19877;SDS011;10101;52.204;9.910;2023-02-19T10:01:21;2.40;;;1.63;;
19877;SDS011;10101;52.204;9.910;2023-02-19T10:03:51;1.93;;;1.33;;
19877;SDS011;10101;52.204;9.910;2023-02-19T10:06:19;2.77;;;1.80;;
19877;SDS011;10101;52.204;9.910;2023-02-19T10:08:48;3.47;;;1.40;;
19877;SDS011;10101;52.204;9.910;2023-02-19T10:11:17;2.37;;;1.67;;
19877;SDS011;10101;52.204;9.910;2023-02-19T10:13:44;2.33;;;1.20;;
19877;SDS011;10101;52.204;9.910;2023-02-19T10:16:16;2.50;;;1.43;;
19877;SDS011;10101;52.204;9.910;2023-02-19T10:18:45;2.80;;;1.47;;
19877;SDS011;10101;52.204;9.910;2023-02-19T10:21:14;1.53;;;1.17;;
19877;SDS011;10101;52.204;9.910;2023-02-19T10:23:43;2.70;;;1.33;;
19877;SDS011;10101;52.204;9.910;2023-02-19T10:26:11;2.83;;;1.40;;
19877;SDS011;10101;52.204;9.910;2023-02-19T10:28:37;3.47;;;1.37;;
19877;SDS011;10101;52.204;9.910;2023-02-19T10:31:10;1.70;;;1.20;;
19877;SDS011;10101;52.204;9.910;2023-02-19T10:33:48;1.87;;;1.43;;
19877;SDS011;10101;52.204;9.910;2023-02-19T10:36:20;3.90;;;1.30;;
19877;SDS011;10101;52.204;9.910;2023-02-19T10:38:51;2.13;;;1.43;;
19877;SDS011;10101;52.204;9.910;2023-02-19T10:41:19;2.43;;;1.70;;
19877;SDS011;10101;52.204;9.910;2023-02-19T10:43:49;5.67;;;1.90;;
19877;SDS011;10101;52.204;9.910;2023-02-19T10:46:20;3.80;;;2.00;;
19877;SDS011;10101;52.204;9.910;2023-02-19T10:48:51;5.37;;;1.73;;
19877;SDS011;10101;52.204;9.910;2023-02-19T10:51:20;3.07;;;1.90;;
19877;SDS011;10101;52.204;9.910;2023-02-19T10:54:01;5.13;;;2.00;;
19877;SDS011;10101;52.204;9.910;2023-02-19T10:56:30;3.30;;;1.93;;
19877;SDS011;10101;52.204;9.910;2023-02-19T10:59:12;3.53;;;2.37;;
19877;SDS011;10101;52.204;9.910;2023-02-19T11:01:51;4.77;;;2.20;;
19877;SDS011;10101;52.204;9.910;2023-02-19T11:04:20;4.23;;;2.60;;
19877;SDS011;10101;52.204;9.910;2023-02-19T11:06:47;8.47;;;3.57;;
19877;SDS011;10101;52.204;9.910;2023-02-19T11:09:21;7.50;;;3.50;;
19877;SDS011;10101;52.204;9.910;2023-02-19T11:11:51;7.63;;;3.60;;
19877;SDS011;10101;52.204;9.910;2023-02-19T11:14:20;5.13;;;2.70;;
19877;SDS011;10101;52.204;9.910;2023-02-19T11:16:49;6.03;;;3.50;;
19877;SDS011;10101;52.204;9.910;2023-02-19T11:19:22;7.87;;;3.10;;
19877;SDS011;10101;52.204;9.910;2023-02-19T11:21:51;7.63;;;3.13;;
19877;SDS011;10101;52.204;9.910;2023-02-19T11:24:24;6.43;;;3.20;;
19877;SDS011;10101;52.204;9.910;2023-02-19T11:26:53;9.23;;;3.37;;
19877;SDS011;10101;52.204;9.910;2023-02-19T11:29:22;4.87;;;2.80;;
19877;SDS011;10101;52.204;9.910;2023-02-19T11:31:52;5.87;;;2.57;;
19877;SDS011;10101;52.204;9.910;2023-02-19T11:34:28;5.17;;;3.13;;
19877;SDS011;10101;52.204;9.910;2023-02-19T11:37:08;4.63;;;3.10;;
19877;SDS011;10101;52.204;9.910;2023-02-19T11:39:37;6.83;;;2.53;;
19877;SDS011;10101;52.204;9.910;2023-02-19T11:42:22;15.30;;;8.67;;
19877;SDS011;10101;52.204;9.910;2023-02-19T11:45:07;5.43;;;2.63;;
19877;SDS011;10101;52.204;9.910;2023-02-19T11:47:58;3.83;;;1.47;;
19877;SDS011;10101;52.204;9.910;2023-02-19T11:50:40;4.07;;;1.63;;
19877;SDS011;10101;52.204;9.910;2023-02-19T11:53:16;3.77;;;1.50;;
19877;SDS011;10101;52.204;9.910;2023-02-19T11:55:52;5.03;;;1.50;;
19877;SDS011;10101;52.204;9.910;2023-02-19T11:58:37;2.17;;;1.50;;
19877;SDS011;10101;52.204;9.910;2023-02-19T12:01:22;2.40;;;1.80;;
19877;SDS011;10101;52.204;9.910;2023-02-19T12:07:05;2.90;;;1.40;;
19877;SDS011;10101;52.204;9.910;2023-02-19T12:09:47;5.27;;;1.73;;
19877;SDS011;10101;52.204;9.910;2023-02-19T12:12:29;4.87;;;2.07;;
19877;SDS011;10101;52.204;9.910;2023-02-19T12:15:09;3.60;;;1.63;;
19877;SDS011;10101;52.204;9.910;2023-02-19T12:18:00;1.87;;;1.40;;
19877;SDS011;10101;52.204;9.910;2023-02-19T12:20:42;2.37;;;1.20;;
19877;SDS011;10101;52.204;9.910;2023-02-19T12:23:35;4.40;;;1.50;;
19877;SDS011;10101;52.204;9.910;2023-02-19T12:26:17;3.80;;;1.70;;
19877;SDS011;10101;52.204;9.910;2023-02-19T12:28:52;2.37;;;1.60;;
19877;SDS011;10101;52.204;9.910;2023-02-19T12:31:57;2.47;;;1.83;;
19877;SDS011;10101;52.204;9.910;2023-02-19T12:34:36;3.27;;;1.53;;
19877;SDS011;10101;52.204;9.910;2023-02-19T12:37:28;3.53;;;1.70;;
19877;SDS011;10101;52.204;9.910;2023-02-19T12:40:14;3.33;;;1.80;;
19877;SDS011;10101;52.204;9.910;2023-02-19T12:42:50;3.07;;;1.40;;
19877;SDS011;10101;52.204;9.910;2023-02-19T12:45:26;7.93;;;2.10;;
19877;SDS011;10101;52.204;9.910;2023-02-19T12:47:58;4.40;;;1.77;;
19877;SDS011;10101;52.204;9.910;2023-02-19T12:50:29;2.67;;;1.43;;
19877;SDS011;10101;52.204;9.910;2023-02-19T12:52:57;2.10;;;1.20;;
19877;SDS011;10101;52.204;9.910;2023-02-19T12:55:31;1.50;;;1.20;;
19877;SDS011;10101;52.204;9.910;2023-02-19T12:58:01;2.97;;;1.17;;
19877;SDS011;10101;52.204;9.910;2023-02-19T13:00:32;2.43;;;1.13;;
19877;SDS011;10101;52.204;9.910;2023-02-19T13:03:07;4.97;;;1.10;;
19877;SDS011;10101;52.204;9.910;2023-02-19T13:05:41;5.70;;;1.33;;
19877;SDS011;10101;52.204;9.910;2023-02-19T13:08:13;1.93;;;1.00;;
19877;SDS011;10101;52.204;9.910;2023-02-19T13:10:46;3.15;;;1.10;;
19877;SDS011;10101;52.204;9.910;2023-02-19T13:13:21;2.97;;;0.97;;
19877;SDS011;10101;52.204;9.910;2023-02-19T13:15:51;5.90;;;0.90;;
19877;SDS011;10101;52.204;9.910;2023-02-19T13:18:23;3.93;;;0.93;;
19877;SDS011;10101;52.204;9.910;2023-02-19T13:20:52;1.00;;;0.90;;
19877;SDS011;10101;52.204;9.910;2023-02-19T13:23:21;2.20;;;0.80;;
19877;SDS011;10101;52.204;9.910;2023-02-19T13:26:25;2.30;;;0.90;;
19877;SDS011;10101;52.204;9.910;2023-02-19T13:32:23;2.57;;;0.90;;
19877;SDS011;10101;52.204;9.910;2023-02-19T13:35:02;1.67;;;0.97;;
19877;SDS011;10101;52.204;9.910;2023-02-19T13:37:41;4.33;;;1.00;;
19877;SDS011;10101;52.204;9.910;2023-02-19T13:40:17;2.63;;;1.00;;
19877;SDS011;10101;52.204;9.910;2023-02-19T13:42:51;3.07;;;1.00;;
19877;SDS011;10101;52.204;9.910;2023-02-19T13:45:20;4.43;;;1.43;;
19877;SDS011;10101;52.204;9.910;2023-02-19T13:47:57;2.00;;;1.00;;
19877;SDS011;10101;52.204;9.910;2023-02-19T13:50:26;6.10;;;1.20;;
19877;SDS011;10101;52.204;9.910;2023-02-19T13:52:54;2.43;;;0.90;;
19877;SDS011;10101;52.204;9.910;2023-02-19T14:19:52;2.97;;;0.90;;
19877;SDS011;10101;52.204;9.910;2023-02-19T14:25:39;1.60;;;0.70;;
19877;SDS011;10101;52.204;9.910;2023-02-19T14:30:58;1.37;;;0.90;;
19877;SDS011;10101;52.204;9.910;2023-02-19T14:33:28;1.87;;;0.80;;
19877;SDS011;10101;52.204;9.910;2023-02-19T14:35:58;2.57;;;1.00;;
19877;SDS011;10101;52.204;9.910;2023-02-19T14:38:31;0.93;;;0.67;;
19877;SDS011;10101;52.204;9.910;2023-02-19T14:41:01;4.53;;;0.80;;
19877;SDS011;10101;52.204;9.910;2023-02-19T14:43:29;2.83;;;0.80;;
19877;SDS011;10101;52.204;9.910;2023-02-19T14:45:59;0.83;;;0.70;;
19877;SDS011;10101;52.204;9.910;2023-02-19T14:48:30;1.57;;;0.80;;
19877;SDS011;10101;52.204;9.910;2023-02-19T14:51:02;1.67;;;0.80;;
19877;SDS011;10101;52.204;9.910;2023-02-19T14:53:33;2.70;;;1.00;;
19877;SDS011;10101;52.204;9.910;2023-02-19T14:56:04;3.03;;;1.43;;
19877;SDS011;10101;52.204;9.910;2023-02-19T14:58:41;3.23;;;1.20;;
19877;SDS011;10101;52.204;9.910;2023-02-19T15:03:52;2.23;;;1.00;;
19877;SDS011;10101;52.204;9.910;2023-02-19T15:06:21;3.20;;;0.90;;
19877;SDS011;10101;52.204;9.910;2023-02-19T15:08:50;1.60;;;1.07;;
19877;SDS011;10101;52.204;9.910;2023-02-19T15:11:19;1.60;;;1.20;;
19877;SDS011;10101;52.204;9.910;2023-02-19T15:13:48;2.90;;;1.20;;
19877;SDS011;10101;52.204;9.910;2023-02-19T15:16:17;4.33;;;1.50;;
19877;SDS011;10101;52.204;9.910;2023-02-19T15:18:45;4.60;;;1.50;;
19877;SDS011;10101;52.204;9.910;2023-02-19T15:21:17;4.13;;;1.40;;
19877;SDS011;10101;52.204;9.910;2023-02-19T15:23:49;2.00;;;1.00;;
19877;SDS011;10101;52.204;9.910;2023-02-19T15:26:19;1.47;;;1.00;;
19877;SDS011;10101;52.204;9.910;2023-02-19T15:28:55;1.10;;;0.73;;
19877;SDS011;10101;52.204;9.910;2023-02-19T15:31:23;1.50;;;0.70;;
19877;SDS011;10101;52.204;9.910;2023-02-19T15:33:50;1.93;;;1.10;;
19877;SDS011;10101;52.204;9.910;2023-02-19T15:36:21;3.53;;;1.30;;
19877;SDS011;10101;52.204;9.910;2023-02-19T15:38:52;2.83;;;1.20;;
19877;SDS011;10101;52.204;9.910;2023-02-19T15:41:21;3.80;;;0.97;;
19877;SDS011;10101;52.204;9.910;2023-02-19T15:43:53;2.70;;;1.10;;
19877;SDS011;10101;52.204;9.910;2023-02-19T15:46:25;3.17;;;1.20;;
19877;SDS011;10101;52.204;9.910;2023-02-19T15:48:55;3.00;;;1.40;;
19877;SDS011;10101;52.204;9.910;2023-02-19T15:51:29;2.60;;;1.60;;